sensor_id;sensor_type;location;lat;lon;timestamp;pressure;altitude;pressure_sealevel;temperature;humidity
15193;BME280;7697;51.630;7.484;2023-05-02T00:01:43;101077.00;;;13.82;91.39
15193;BME280;7697;51.630;7.484;2023-05-02T00:06:47;101064.72;;;13.75;91.78
15193;BME280;7697;51.630;7.484;2023-05-02T00:11:51;101074.34;;;13.63;90.68
15193;BME280;7697;51.630;7.484;2023-05-02T00:16:52;101090.63;;;14.19;90.00
15193;BME280;7697;51.630;7.484;2023-05-02T00:21:54;101091.38;;;13.48;91.66
15193;BME280;7697;51.630;7.484;2023-05-02T00:26:57;101107.75;;;13.39;91.38
15193;BME280;7697;51.630;7.484;2023-05-02T00:31:59;101099.16;;;13.30;91.95
15193;BME280;7697;51.630;7.484;2023-05-02T00:37:01;101100.38;;;13.28;92.04
15193;BME280;7697;51.630;7.484;2023-05-02T00:42:04;101105.69;;;13.28;92.50
15193;BME280;7697;51.630;7.484;2023-05-02T00:47:06;101104.28;;;13.58;91.33
15193;BME280;7697;51.630;7.484;2023-05-02T00:52:08;101103.03;;;13.28;92.14
15193;BME280;7697;51.630;7.484;2023-05-02T00:57:11;101112.66;;;13.22;92.33
15193;BME280;7697;51.630;7.484;2023-05-02T01:02:27;101103.84;;;13.15;92.74
15193;BME280;7697;51.630;7.484;2023-05-02T01:07:41;101103.59;;;13.10;92.52
15193;BME280;7697;51.630;7.484;2023-05-02T01:12:53;101104.00;;;13.07;92.16
15193;BME280;7697;51.630;7.484;2023-05-02T01:17:59;101114.41;;;12.95;92.19
15193;BME280;7697;51.630;7.484;2023-05-02T01:23:13;101111.31;;;12.85;92.38
15193;BME280;7697;51.630;7.484;2023-05-02T01:28:28;101115.00;;;12.77;92.07
15193;BME280;7697;51.630;7.484;2023-05-02T01:33:34;101118.22;;;12.66;92.08
15193;BME280;7697;51.630;7.484;2023-05-02T01:38:37;101121.88;;;12.59;92.38
15193;BME280;7697;51.630;7.484;2023-05-02T01:43:40;101140.84;;;12.56;92.51
15193;BME280;7697;51.630;7.484;2023-05-02T01:48:45;101131.00;;;12.43;92.48
15193;BME280;7697;51.630;7.484;2023-05-02T01:53:48;101132.41;;;12.39;92.82
15193;BME280;7697;51.630;7.484;2023-05-02T01:58:52;101160.22;;;12.43;92.86
15193;BME280;7697;51.630;7.484;2023-05-02T02:03:57;101167.97;;;12.45;92.67
15193;BME280;7697;51.630;7.484;2023-05-02T02:09:01;101165.53;;;12.43;92.91
15193;BME280;7697;51.630;7.484;2023-05-02T02:14:06;101173.72;;;12.42;93.37
15193;BME280;7697;51.630;7.484;2023-05-02T02:19:14;101182.91;;;12.46;93.77
15193;BME280;7697;51.630;7.484;2023-05-02T02:24:17;101185.81;;;12.51;93.74
15193;BME280;7697;51.630;7.484;2023-05-02T02:29:21;101185.38;;;12.47;94.31
15193;BME280;7697;51.630;7.484;2023-05-02T02:34:25;101184.56;;;12.47;94.58
15193;BME280;7697;51.630;7.484;2023-05-02T02:39:37;101196.44;;;12.51;95.16
15193;BME280;7697;51.630;7.484;2023-05-02T02:44:53;101193.78;;;12.51;94.63
15193;BME280;7697;51.630;7.484;2023-05-02T02:50:08;101200.31;;;12.55;94.99
15193;BME280;7697;51.630;7.484;2023-05-02T02:55:16;101194.59;;;12.51;95.34
15193;BME280;7697;51.630;7.484;2023-05-02T03:00:23;101204.00;;;12.54;95.02
15193;BME280;7697;51.630;7.484;2023-05-02T03:05:27;101194.81;;;12.56;95.28
15193;BME280;7697;51.630;7.484;2023-05-02T03:10:29;101196.84;;;12.54;95.49
15193;BME280;7697;51.630;7.484;2023-05-02T03:21:19;101215.25;;;12.56;95.37
15193;BME280;7697;51.630;7.484;2023-05-02T03:26:21;101199.91;;;12.51;95.62
15193;BME280;7697;51.630;7.484;2023-05-02T03:31:22;101227.09;;;12.53;95.58
15193;BME280;7697;51.630;7.484;2023-05-02T03:36:25;101211.31;;;12.45;95.63
15193;BME280;7697;51.630;7.484;2023-05-02T03:41:27;101221.13;;;12.45;95.97
15193;BME280;7697;51.630;7.484;2023-05-02T03:46:29;101223.19;;;12.49;95.88
15193;BME280;7697;51.630;7.484;2023-05-02T03:51:32;101230.72;;;12.46;95.52
15193;BME280;7697;51.630;7.484;2023-05-02T03:56:34;101234.66;;;12.50;95.81
15193;BME280;7697;51.630;7.484;2023-05-02T04:01:37;101243.81;;;12.47;95.86
15193;BME280;7697;51.630;7.484;2023-05-02T04:06:40;101247.75;;;12.51;96.23
15193;BME280;7697;51.630;7.484;2023-05-02T04:11:42;101257.34;;;12.52;95.57
15193;BME280;7697;51.630;7.484;2023-05-02T04:16:47;101257.53;;;12.51;96.34
15193;BME280;7697;51.630;7.484;2023-05-02T04:21:50;101252.81;;;12.46;96.32
15193;BME280;7697;51.630;7.484;2023-05-02T04:26:51;101266.72;;;12.48;96.07
15193;BME280;7697;51.630;7.484;2023-05-02T04:31:53;101272.25;;;12.53;96.36
15193;BME280;7697;51.630;7.484;2023-05-02T04:36:56;101288.97;;;12.47;96.58
15193;BME280;7697;51.630;7.484;2023-05-02T04:41:58;101285.31;;;12.48;96.57
15193;BME280;7697;51.630;7.484;2023-05-02T04:47:00;101292.25;;;12.43;96.96
15193;BME280;7697;51.630;7.484;2023-05-02T04:52:05;101301.22;;;12.42;97.38
15193;BME280;7697;51.630;7.484;2023-05-02T04:57:07;101309.59;;;12.45;97.59
15193;BME280;7697;51.630;7.484;2023-05-02T05:02:09;101321.69;;;12.48;97.80
15193;BME280;7697;51.630;7.484;2023-05-02T05:07:13;101327.81;;;12.48;97.81
15193;BME280;7697;51.630;7.484;2023-05-02T05:12:14;101334.16;;;12.47;98.15
15193;BME280;7697;51.630;7.484;2023-05-02T05:17:16;101346.53;;;12.33;98.53
15193;BME280;7697;51.630;7.484;2023-05-02T05:22:19;101352.34;;;12.22;100.00
15193;BME280;7697;51.630;7.484;2023-05-02T05:27:21;101363.41;;;12.05;100.00
15193;BME280;7697;51.630;7.484;2023-05-02T05:32:23;101368.38;;;11.93;100.00
15193;BME280;7697;51.630;7.484;2023-05-02T05:37:26;101368.13;;;11.88;100.00
15193;BME280;7697;51.630;7.484;2023-05-02T05:42:28;101376.94;;;11.88;100.00
15193;BME280;7697;51.630;7.484;2023-05-02T05:47:30;101382.69;;;12.13;100.00
15193;BME280;7697;51.630;7.484;2023-05-02T05:52:33;101383.81;;;12.04;100.00
15193;BME280;7697;51.630;7.484;2023-05-02T05:57:36;101396.16;;;12.12;100.00
15193;BME280;7697;51.630;7.484;2023-05-02T06:02:38;101403.75;;;12.15;100.00
15193;BME280;7697;51.630;7.484;2023-05-02T06:07:42;101407.66;;;12.19;100.00
15193;BME280;7697;51.630;7.484;2023-05-02T06:12:44;101409.31;;;12.20;100.00
15193;BME280;7697;51.630;7.484;2023-05-02T06:17:45;101423.53;;;12.55;98.70
15193;BME280;7697;51.630;7.484;2023-05-02T06:22:49;101437.50;;;12.21;99.61
15193;BME280;7697;51.630;7.484;2023-05-02T06:27:51;101430.66;;;12.12;99.81
15193;BME280;7697;51.630;7.484;2023-05-02T06:32:53;101441.56;;;12.17;99.59
15193;BME280;7697;51.630;7.484;2023-05-02T06:37:56;101448.78;;;12.23;98.93
15193;BME280;7697;51.630;7.484;2023-05-02T06:42:58;101454.19;;;12.36;99.17
15193;BME280;7697;51.630;7.484;2023-05-02T06:48:00;101462.13;;;12.29;98.99
15193;BME280;7697;51.630;7.484;2023-05-02T06:53:04;101472.28;;;12.26;98.87
15193;BME280;7697;51.630;7.484;2023-05-02T06:58:05;101490.69;;;12.27;98.95
15193;BME280;7697;51.630;7.484;2023-05-02T07:03:07;101494.81;;;12.30;98.24
15193;BME280;7697;51.630;7.484;2023-05-02T07:08:11;101499.38;;;12.36;97.84
15193;BME280;7697;51.630;7.484;2023-05-02T07:13:13;101503.47;;;12.38;97.83
15193;BME280;7697;51.630;7.484;2023-05-02T07:18:15;101508.88;;;12.45;97.73
15193;BME280;7697;51.630;7.484;2023-05-02T07:23:19;101521.06;;;12.39;97.81
15193;BME280;7697;51.630;7.484;2023-05-02T07:28:21;101558.19;;;12.33;95.33
15193;BME280;7697;51.630;7.484;2023-05-02T07:33:23;101562.53;;;12.05;96.75
15193;BME280;7697;51.630;7.484;2023-05-02T07:38:27;101575.28;;;11.57;97.19
15193;BME280;7697;51.630;7.484;2023-05-02T07:43:29;101597.09;;;11.29;97.95
15193;BME280;7697;51.630;7.484;2023-05-02T07:48:31;101602.19;;;11.16;98.37
15193;BME280;7697;51.630;7.484;2023-05-02T07:53:34;101604.69;;;10.87;97.39
15193;BME280;7697;51.630;7.484;2023-05-02T07:58:36;101615.75;;;10.68;97.58
15193;BME280;7697;51.630;7.484;2023-05-02T08:03:38;101629.97;;;10.67;97.71
15193;BME280;7697;51.630;7.484;2023-05-02T08:08:41;101626.38;;;10.60;98.32
15193;BME280;7697;51.630;7.484;2023-05-02T08:13:43;101630.13;;;10.73;98.37
15193;BME280;7697;51.630;7.484;2023-05-02T08:18:44;101641.25;;;10.91;98.40
15193;BME280;7697;51.630;7.484;2023-05-02T08:23:48;101652.19;;;10.97;98.04
15193;BME280;7697;51.630;7.484;2023-05-02T08:28:50;101654.94;;;11.03;98.32
15193;BME280;7697;51.630;7.484;2023-05-02T08:33:52;101664.44;;;10.98;97.07
15193;BME280;7697;51.630;7.484;2023-05-02T08:38:55;101668.75;;;10.99;97.76
15193;BME280;7697;51.630;7.484;2023-05-02T08:43:58;101670.47;;;11.14;98.19
15193;BME280;7697;51.630;7.484;2023-05-02T08:49:01;101668.84;;;11.05;96.70
15193;BME280;7697;51.630;7.484;2023-05-02T08:54:05;101697.28;;;10.88;96.92
15193;BME280;7697;51.630;7.484;2023-05-02T08:59:09;101702.31;;;10.75;96.59
15193;BME280;7697;51.630;7.484;2023-05-02T09:04:11;101701.94;;;10.86;96.81
15193;BME280;7697;51.630;7.484;2023-05-02T09:09:15;101715.53;;;11.14;95.61
15193;BME280;7697;51.630;7.484;2023-05-02T09:14:17;101717.41;;;11.28;94.37
15193;BME280;7697;51.630;7.484;2023-05-02T09:19:23;101720.16;;;11.43;93.02
15193;BME280;7697;51.630;7.484;2023-05-02T09:24:27;101722.16;;;11.64;94.01
15193;BME280;7697;51.630;7.484;2023-05-02T09:29:30;101735.66;;;12.00;91.29
15193;BME280;7697;51.630;7.484;2023-05-02T09:34:35;101729.22;;;11.49;90.29
15193;BME280;7697;51.630;7.484;2023-05-02T09:39:40;101738.56;;;11.45;90.99
15193;BME280;7697;51.630;7.484;2023-05-02T09:44:41;101749.19;;;11.37;90.33
15193;BME280;7697;51.630;7.484;2023-05-02T09:49:44;101750.16;;;11.44;91.03
15193;BME280;7697;51.630;7.484;2023-05-02T09:54:48;101766.97;;;12.05;89.27
15193;BME280;7697;51.630;7.484;2023-05-02T09:59:55;101768.66;;;12.35;88.04
15193;BME280;7697;51.630;7.484;2023-05-02T10:04:59;101775.84;;;11.97;90.04
15193;BME280;7697;51.630;7.484;2023-05-02T10:10:06;101783.06;;;11.88;89.59
15193;BME280;7697;51.630;7.484;2023-05-02T10:15:10;101783.41;;;11.85;89.05
15193;BME280;7697;51.630;7.484;2023-05-02T10:20:20;101786.16;;;11.92;88.50
15193;BME280;7697;51.630;7.484;2023-05-02T10:25:24;101790.53;;;11.85;87.56
15193;BME280;7697;51.630;7.484;2023-05-02T10:30:27;101787.97;;;11.91;86.92
15193;BME280;7697;51.630;7.484;2023-05-02T10:35:29;101785.88;;;11.87;86.38
15193;BME280;7697;51.630;7.484;2023-05-02T10:40:33;101788.28;;;11.96;86.02
15193;BME280;7697;51.630;7.484;2023-05-02T10:45:36;101790.47;;;11.93;82.99
15193;BME280;7697;51.630;7.484;2023-05-02T10:50:42;101791.59;;;11.98;82.25
15193;BME280;7697;51.630;7.484;2023-05-02T10:56:15;101787.88;;;12.08;83.06
15193;BME280;7697;51.630;7.484;2023-05-02T11:01:36;101793.63;;;12.34;82.83
15193;BME280;7697;51.630;7.484;2023-05-02T11:07:16;101793.72;;;12.40;81.52
15193;BME280;7697;51.630;7.484;2023-05-02T11:12:44;101798.94;;;12.49;81.27
15193;BME280;7697;51.630;7.484;2023-05-02T11:17:59;101799.69;;;12.57;80.52
15193;BME280;7697;51.630;7.484;2023-05-02T11:23:23;101802.16;;;12.59;79.98
15193;BME280;7697;51.630;7.484;2023-05-02T11:28:45;101805.47;;;12.61;77.81
15193;BME280;7697;51.630;7.484;2023-05-02T11:33:54;101812.88;;;12.65;76.00
15193;BME280;7697;51.630;7.484;2023-05-02T11:38:56;101818.28;;;12.72;76.04
15193;BME280;7697;51.630;7.484;2023-05-02T11:44:03;101817.84;;;12.83;73.84
15193;BME280;7697;51.630;7.484;2023-05-02T11:49:05;101823.97;;;12.98;71.88
15193;BME280;7697;51.630;7.484;2023-05-02T11:54:07;101822.63;;;13.02;71.50
15193;BME280;7697;51.630;7.484;2023-05-02T11:59:10;101826.19;;;13.09;69.30
15193;BME280;7697;51.630;7.484;2023-05-02T12:04:12;101829.75;;;13.02;69.13
15193;BME280;7697;51.630;7.484;2023-05-02T12:09:14;101829.75;;;13.02;68.51
15193;BME280;7697;51.630;7.484;2023-05-02T12:14:25;101844.06;;;13.01;67.78
15193;BME280;7697;51.630;7.484;2023-05-02T12:19:27;101837.13;;;13.14;67.78
15193;BME280;7697;51.630;7.484;2023-05-02T12:24:29;101844.03;;;13.60;68.21
15193;BME280;7697;51.630;7.484;2023-05-02T12:29:39;101841.88;;;13.70;65.56
15193;BME280;7697;51.630;7.484;2023-05-02T12:34:41;101847.00;;;13.86;65.62
15193;BME280;7697;51.630;7.484;2023-05-02T12:39:43;101847.75;;;14.01;63.04
15193;BME280;7697;51.630;7.484;2023-05-02T12:44:48;101854.00;;;14.15;62.77
15193;BME280;7697;51.630;7.484;2023-05-02T12:49:52;101858.50;;;14.14;63.31
15193;BME280;7697;51.630;7.484;2023-05-02T12:55:16;101854.44;;;14.61;60.66
15193;BME280;7697;51.630;7.484;2023-05-02T13:00:19;101844.31;;;15.66;62.84
15193;BME280;7697;51.630;7.484;2023-05-02T13:05:21;101868.09;;;16.35;61.15
15193;BME280;7697;51.630;7.484;2023-05-02T13:10:23;101875.47;;;16.07;58.12
15193;BME280;7697;51.630;7.484;2023-05-02T13:15:26;101867.38;;;15.81;58.14
15193;BME280;7697;51.630;7.484;2023-05-02T13:20:28;101873.50;;;15.61;60.63
15193;BME280;7697;51.630;7.484;2023-05-02T13:25:30;101870.81;;;15.55;59.85
15193;BME280;7697;51.630;7.484;2023-05-02T13:30:33;101877.72;;;15.49;57.00
15193;BME280;7697;51.630;7.484;2023-05-02T13:35:35;101878.25;;;15.31;58.45
15193;BME280;7697;51.630;7.484;2023-05-02T13:40:37;101879.25;;;15.24;58.28
15193;BME280;7697;51.630;7.484;2023-05-02T13:45:40;101886.38;;;15.10;59.65
15193;BME280;7697;51.630;7.484;2023-05-02T13:50:42;101884.75;;;15.16;56.58
15193;BME280;7697;51.630;7.484;2023-05-02T13:55:44;101888.53;;;15.28;58.73
15193;BME280;7697;51.630;7.484;2023-05-02T14:00:47;101885.38;;;15.59;57.45
15193;BME280;7697;51.630;7.484;2023-05-02T14:05:49;101890.16;;;15.29;57.58
15193;BME280;7697;51.630;7.484;2023-05-02T14:10:51;101893.84;;;15.69;59.25
15193;BME280;7697;51.630;7.484;2023-05-02T14:15:54;101886.34;;;15.99;58.43
15193;BME280;7697;51.630;7.484;2023-05-02T14:20:57;101894.16;;;16.13;57.92
15193;BME280;7697;51.630;7.484;2023-05-02T14:26:00;101899.72;;;16.05;57.09
15193;BME280;7697;51.630;7.484;2023-05-02T14:31:03;101895.72;;;15.75;54.71
15193;BME280;7697;51.630;7.484;2023-05-02T14:36:05;101894.50;;;15.84;54.83
15193;BME280;7697;51.630;7.484;2023-05-02T14:41:07;101894.50;;;15.77;54.21
15193;BME280;7697;51.630;7.484;2023-05-02T14:46:10;101897.59;;;15.81;55.43
15193;BME280;7697;51.630;7.484;2023-05-02T14:51:12;101898.06;;;16.04;54.50
15193;BME280;7697;51.630;7.484;2023-05-02T14:56:13;101893.53;;;15.98;54.56
15193;BME280;7697;51.630;7.484;2023-05-02T15:01:20;101911.41;;;15.91;55.49
15193;BME280;7697;51.630;7.484;2023-05-02T15:06:22;101903.72;;;15.68;54.60
15193;BME280;7697;51.630;7.484;2023-05-02T15:11:23;101890.34;;;15.68;56.25
15193;BME280;7697;51.630;7.484;2023-05-02T15:16:27;101894.19;;;15.53;53.48
15193;BME280;7697;51.630;7.484;2023-05-02T15:21:29;101899.88;;;15.43;53.92
15193;BME280;7697;51.630;7.484;2023-05-02T15:26:32;101891.66;;;15.38;52.53
15193;BME280;7697;51.630;7.484;2023-05-02T15:31:35;101902.94;;;15.40;54.46
15193;BME280;7697;51.630;7.484;2023-05-02T15:36:36;101907.06;;;15.43;54.18
15193;BME280;7697;51.630;7.484;2023-05-02T15:41:38;101908.06;;;15.35;54.67
15193;BME280;7697;51.630;7.484;2023-05-02T15:46:42;101910.28;;;15.31;54.18
15193;BME280;7697;51.630;7.484;2023-05-02T15:51:45;101905.59;;;15.40;53.71
15193;BME280;7697;51.630;7.484;2023-05-02T15:56:47;101912.34;;;15.29;53.57
15193;BME280;7697;51.630;7.484;2023-05-02T16:01:50;101918.41;;;15.17;52.34
15193;BME280;7697;51.630;7.484;2023-05-02T16:06:53;101920.41;;;15.08;53.77
15193;BME280;7697;51.630;7.484;2023-05-02T16:11:54;101922.78;;;14.96;53.73
15193;BME280;7697;51.630;7.484;2023-05-02T16:16:57;101916.22;;;14.92;54.09
15193;BME280;7697;51.630;7.484;2023-05-02T16:21:59;101913.38;;;14.94;54.38
15193;BME280;7697;51.630;7.484;2023-05-02T16:27:01;101912.56;;;15.00;54.39
15193;BME280;7697;51.630;7.484;2023-05-02T16:32:05;101923.41;;;14.92;54.39
15193;BME280;7697;51.630;7.484;2023-05-02T16:37:07;101916.38;;;14.84;53.94
15193;BME280;7697;51.630;7.484;2023-05-02T16:42:10;101911.56;;;14.73;53.79
15193;BME280;7697;51.630;7.484;2023-05-02T16:47:14;101919.28;;;14.68;53.35
15193;BME280;7697;51.630;7.484;2023-05-02T16:52:16;101926.13;;;14.49;52.22
15193;BME280;7697;51.630;7.484;2023-05-02T16:57:17;101930.66;;;14.49;54.10
15193;BME280;7697;51.630;7.484;2023-05-02T17:02:21;101934.94;;;14.50;55.19
15193;BME280;7697;51.630;7.484;2023-05-02T17:07:24;101951.06;;;14.42;55.11
15193;BME280;7697;51.630;7.484;2023-05-02T17:12:25;101951.16;;;14.34;54.89
15193;BME280;7697;51.630;7.484;2023-05-02T17:17:28;101947.34;;;14.21;55.41
15193;BME280;7697;51.630;7.484;2023-05-02T17:22:31;101956.25;;;14.14;56.01
15193;BME280;7697;51.630;7.484;2023-05-02T17:27:33;101945.66;;;13.99;56.33
15193;BME280;7697;51.630;7.484;2023-05-02T17:32:36;101938.69;;;13.98;57.40
15193;BME280;7697;51.630;7.484;2023-05-02T17:37:38;101942.47;;;13.89;57.78
15193;BME280;7697;51.630;7.484;2023-05-02T17:42:41;101934.78;;;13.79;57.23
15193;BME280;7697;51.630;7.484;2023-05-02T17:47:45;101943.53;;;13.59;57.71
15193;BME280;7697;51.630;7.484;2023-05-02T17:52:47;101945.91;;;13.53;58.04
15193;BME280;7697;51.630;7.484;2023-05-02T17:57:50;101947.66;;;13.46;57.59
15193;BME280;7697;51.630;7.484;2023-05-02T18:02:53;101944.44;;;13.36;57.96
15193;BME280;7697;51.630;7.484;2023-05-02T18:07:54;101949.88;;;13.28;57.89
15193;BME280;7697;51.630;7.484;2023-05-02T18:12:58;101961.06;;;13.24;58.57
15193;BME280;7697;51.630;7.484;2023-05-02T18:18:01;101967.63;;;13.13;58.94
15193;BME280;7697;51.630;7.484;2023-05-02T18:23:02;101966.22;;;13.02;59.01
15193;BME280;7697;51.630;7.484;2023-05-02T18:28:05;101974.47;;;12.93;59.58
15193;BME280;7697;51.630;7.484;2023-05-02T18:33:08;101971.94;;;12.76;59.78
15193;BME280;7697;51.630;7.484;2023-05-02T18:38:10;101975.13;;;12.72;60.52
15193;BME280;7697;51.630;7.484;2023-05-02T18:43:12;101977.41;;;12.60;61.53
15193;BME280;7697;51.630;7.484;2023-05-02T18:48:15;101972.94;;;12.53;62.37
15193;BME280;7697;51.630;7.484;2023-05-02T18:53:17;101988.78;;;12.46;62.18
15193;BME280;7697;51.630;7.484;2023-05-02T18:58:22;101991.50;;;12.38;63.13
15193;BME280;7697;51.630;7.484;2023-05-02T19:03:27;101995.53;;;12.26;63.78
15193;BME280;7697;51.630;7.484;2023-05-02T19:08:29;102002.56;;;12.19;64.51
15193;BME280;7697;51.630;7.484;2023-05-02T19:13:31;102017.72;;;12.10;64.98
15193;BME280;7697;51.630;7.484;2023-05-02T19:18:34;102011.97;;;11.98;65.04
15193;BME280;7697;51.630;7.484;2023-05-02T19:23:38;102023.97;;;11.86;65.47
15193;BME280;7697;51.630;7.484;2023-05-02T19:28:41;102023.16;;;11.70;65.94
15193;BME280;7697;51.630;7.484;2023-05-02T19:33:48;102020.88;;;11.58;66.16
15193;BME280;7697;51.630;7.484;2023-05-02T19:38:54;102022.88;;;11.48;66.53
15193;BME280;7697;51.630;7.484;2023-05-02T19:43:59;102035.00;;;11.35;66.50
15193;BME280;7697;51.630;7.484;2023-05-02T19:49:03;102030.03;;;11.23;66.85
15193;BME280;7697;51.630;7.484;2023-05-02T19:54:04;102046.44;;;11.19;67.47
15193;BME280;7697;51.630;7.484;2023-05-02T19:59:07;102050.59;;;11.05;66.75
15193;BME280;7697;51.630;7.484;2023-05-02T20:04:10;102045.31;;;10.97;67.35
15193;BME280;7697;51.630;7.484;2023-05-02T20:09:12;102062.88;;;10.90;67.71
15193;BME280;7697;51.630;7.484;2023-05-02T20:14:13;102057.56;;;10.82;67.68
15193;BME280;7697;51.630;7.484;2023-05-02T20:19:21;102066.00;;;10.77;68.04
15193;BME280;7697;51.630;7.484;2023-05-02T20:24:24;102054.88;;;10.66;68.04
15193;BME280;7697;51.630;7.484;2023-05-02T20:29:25;102067.63;;;10.62;68.50
15193;BME280;7697;51.630;7.484;2023-05-02T20:34:29;102072.22;;;10.52;68.97
15193;BME280;7697;51.630;7.484;2023-05-02T20:39:31;102073.72;;;10.46;69.91
15193;BME280;7697;51.630;7.484;2023-05-02T20:44:33;102075.50;;;10.38;69.71
15193;BME280;7697;51.630;7.484;2023-05-02T20:49:37;102083.59;;;10.28;69.38
15193;BME280;7697;51.630;7.484;2023-05-02T20:54:39;102072.28;;;10.18;69.69
15193;BME280;7697;51.630;7.484;2023-05-02T20:59:41;102063.91;;;10.05;69.53
15193;BME280;7697;51.630;7.484;2023-05-02T21:04:49;102074.16;;;10.00;70.74
15193;BME280;7697;51.630;7.484;2023-05-02T21:09:51;102081.09;;;9.93;70.40
15193;BME280;7697;51.630;7.484;2023-05-02T21:14:53;102083.00;;;9.83;70.75
15193;BME280;7697;51.630;7.484;2023-05-02T21:20:02;102079.16;;;9.77;71.54
15193;BME280;7697;51.630;7.484;2023-05-02T21:25:05;102083.72;;;9.67;71.57
15193;BME280;7697;51.630;7.484;2023-05-02T21:30:07;102094.94;;;9.61;71.90
15193;BME280;7697;51.630;7.484;2023-05-02T21:35:13;102080.47;;;9.47;72.24
15193;BME280;7697;51.630;7.484;2023-05-02T21:40:14;102084.88;;;9.38;72.30
15193;BME280;7697;51.630;7.484;2023-05-02T21:45:16;102096.19;;;9.31;73.21
15193;BME280;7697;51.630;7.484;2023-05-02T21:50:20;102083.22;;;9.20;73.79
15193;BME280;7697;51.630;7.484;2023-05-02T21:55:25;102088.75;;;9.09;73.62
15193;BME280;7697;51.630;7.484;2023-05-02T22:00:27;102094.78;;;9.01;74.16
15193;BME280;7697;51.630;7.484;2023-05-02T22:05:30;102095.31;;;8.87;73.91
15193;BME280;7697;51.630;7.484;2023-05-02T22:10:32;102092.06;;;8.75;74.46
15193;BME280;7697;51.630;7.484;2023-05-02T22:15:36;102091.28;;;8.65;75.61
15193;BME280;7697;51.630;7.484;2023-05-02T22:20:39;102102.44;;;8.59;75.34
15193;BME280;7697;51.630;7.484;2023-05-02T22:25:42;102094.59;;;8.49;75.89
15193;BME280;7697;51.630;7.484;2023-05-02T22:30:45;102107.53;;;8.43;75.02
15193;BME280;7697;51.630;7.484;2023-05-02T22:35:48;102099.00;;;8.31;75.88
15193;BME280;7697;51.630;7.484;2023-05-02T22:40:50;102110.22;;;8.23;76.72
15193;BME280;7697;51.630;7.484;2023-05-02T22:45:52;102112.63;;;8.17;76.67
15193;BME280;7697;51.630;7.484;2023-05-02T22:50:56;102109.88;;;8.09;77.27
15193;BME280;7697;51.630;7.484;2023-05-02T22:55:58;102115.19;;;7.99;77.91
15193;BME280;7697;51.630;7.484;2023-05-02T23:01:00;102114.69;;;7.86;77.87
15193;BME280;7697;51.630;7.484;2023-05-02T23:06:04;102113.31;;;7.82;78.19
15193;BME280;7697;51.630;7.484;2023-05-02T23:11:06;102109.72;;;7.73;78.31
15193;BME280;7697;51.630;7.484;2023-05-02T23:16:07;102107.81;;;7.66;78.15
15193;BME280;7697;51.630;7.484;2023-05-02T23:21:14;102106.41;;;7.62;78.65
15193;BME280;7697;51.630;7.484;2023-05-02T23:26:16;102108.09;;;7.53;79.20
15193;BME280;7697;51.630;7.484;2023-05-02T23:31:18;102098.97;;;7.47;79.28
15193;BME280;7697;51.630;7.484;2023-05-02T23:36:21;102104.81;;;7.41;78.95
15193;BME280;7697;51.630;7.484;2023-05-02T23:41:23;102104.69;;;7.33;79.92
15193;BME280;7697;51.630;7.484;2023-05-02T23:46:25;102110.22;;;7.30;79.75
15193;BME280;7697;51.630;7.484;2023-05-02T23:51:28;102108.97;;;7.25;80.43
15193;BME280;7697;51.630;7.484;2023-05-02T23:56:31;102106.63;;;7.12;80.32
